Time;durP1;ratioP1;P1;durP2;ratioP2;P2;SDS_P1;SDS_P2;PMS_P1;PMS_P2;Temp;Humidity;BMP_temperature;BMP_pressure;BME280_temperature;BME280_humidity;BME280_pressure;Samples;Min_cycle;Max_cycle;Signal;HPM_P1;HPM_P2
2021/02/28 00:01:29;;;;;;;2;1.3;;;;;;;;;;;;;
2021/02/28 00:03:56;;;;;;;1.3;1.2;;;;;;;;;;;;;
2021/02/28 00:06:21;;;;;;;1.3;1.2;;;;;;;;;;;;;
2021/02/28 00:08:46;;;;;;;1.6;1.5;;;;;;;;;;;;;
2021/02/28 00:11:12;;;;;;;2.9;2.2;;;;;;;;;;;;;
2021/02/28 00:13:39;;;;;;;3.4;1.8;;;;;;;;;;;;;
2021/02/28 00:16:03;;;;;;;4.3;1.9;;;;;;;;;;;;;
2021/02/28 00:18:32;;;;;;;6;3;;;;;;;;;;;;;
2021/02/28 00:21:00;;;;;;;9.2;4.4;;;;;;;;;;;;;
2021/02/28 00:23:26;;;;;;;6.7;4.3;;;;;;;;;;;;;
2021/02/28 00:25:55;;;;;;;9;4.9;;;;;;;;;;;;;
2021/02/28 00:28:22;;;;;;;7.3;4;;;;;;;;;;;;;
2021/02/28 00:30:48;;;;;;;8.6;3.5;;;;;;;;;;;;;
2021/02/28 00:33:13;;;;;;;7.9;3.3;;;;;;;;;;;;;
2021/02/28 00:35:39;;;;;;;2.9;1.9;;;;;;;;;;;;;
2021/02/28 00:38:04;;;;;;;4.1;2;;;;;;;;;;;;;
2021/02/28 00:40:29;;;;;;;2;1.6;;;;;;;;;;;;;
2021/02/28 00:42:55;;;;;;;3.6;1.7;;;;;;;;;;;;;
2021/02/28 00:45:21;;;;;;;1.9;1.5;;;;;;;;;;;;;
2021/02/28 00:47:46;;;;;;;2.9;2;;;;;;;;;;;;;
2021/02/28 00:50:11;;;;;;;1.9;1.5;;;;;;;;;;;;;
2021/02/28 00:52:37;;;;;;;2.5;2.2;;;;;;;;;;;;;
2021/02/28 00:55:02;;;;;;;4.8;2.1;;;;;;;;;;;;;
2021/02/28 00:57:28;;;;;;;3.8;2.5;;;;;;;;;;;;;
2021/02/28 00:59:53;;;;;;;2.5;1.5;;;;;;;;;;;;;
2021/02/28 01:02:20;;;;;;;2;1.6;;;;;;;;;;;;;
2021/02/28 01:04:45;;;;;;;5.9;3.1;;;;;;;;;;;;;
2021/02/28 01:07:12;;;;;;;4.9;3.1;;;;;;;;;;;;;
2021/02/28 01:09:37;;;;;;;4.1;2.4;;;;;;;;;;;;;
2021/02/28 01:12:04;;;;;;;7.7;3.2;;;;;;;;;;;;;
2021/02/28 01:14:30;;;;;;;3.6;1.9;;;;;;;;;;;;;
2021/02/28 01:16:56;;;;;;;2.6;1.9;;;;;;;;;;;;;
2021/02/28 01:19:21;;;;;;;3.2;2.1;;;;;;;;;;;;;
2021/02/28 01:21:46;;;;;;;2;1.4;;;;;;;;;;;;;
2021/02/28 01:24:12;;;;;;;1.5;1.3;;;;;;;;;;;;;
2021/02/28 01:26:37;;;;;;;2.9;1.7;;;;;;;;;;;;;
2021/02/28 01:29:02;;;;;;;6.5;3.9;;;;;;;;;;;;;
2021/02/28 01:31:29;;;;;;;2.1;1.5;;;;;;;;;;;;;
2021/02/28 01:33:54;;;;;;;2.9;1.7;;;;;;;;;;;;;
2021/02/28 01:36:20;;;;;;;2.2;1.7;;;;;;;;;;;;;
2021/02/28 01:38:45;;;;;;;2.9;1.7;;;;;;;;;;;;;
2021/02/28 01:41:11;;;;;;;4.2;2;;;;;;;;;;;;;
2021/02/28 01:43:36;;;;;;;1.5;1;;;;;;;;;;;;;
2021/02/28 01:46:03;;;;;;;4.6;2.8;;;;;;;;;;;;;
2021/02/28 01:48:29;;;;;;;3.8;3.1;;;;;;;;;;;;;
2021/02/28 01:50:55;;;;;;;4.9;2.7;;;;;;;;;;;;;
2021/02/28 01:53:20;;;;;;;2.9;1.9;;;;;;;;;;;;;
2021/02/28 01:55:45;;;;;;;2.7;2.2;;;;;;;;;;;;;
2021/02/28 01:58:10;;;;;;;3.5;2.1;;;;;;;;;;;;;
2021/02/28 02:00:36;;;;;;;3.2;1.8;;;;;;;;;;;;;
2021/02/28 02:03:01;;;;;;;1.6;1.5;;;;;;;;;;;;;
2021/02/28 02:05:28;;;;;;;2.3;1.5;;;;;;;;;;;;;
2021/02/28 02:07:53;;;;;;;1.9;1.3;;;;;;;;;;;;;
2021/02/28 02:10:19;;;;;;;3.3;2;;;;;;;;;;;;;
2021/02/28 02:12:44;;;;;;;2.9;1.8;;;;;;;;;;;;;
2021/02/28 02:15:13;;;;;;;1.8;1.3;;;;;;;;;;;;;
2021/02/28 02:17:38;;;;;;;2.2;1.3;;;;;;;;;;;;;
2021/02/28 02:20:03;;;;;;;2;1.4;;;;;;;;;;;;;
2021/02/28 02:22:29;;;;;;;2.8;1.7;;;;;;;;;;;;;
2021/02/28 02:24:54;;;;;;;2.4;1.9;;;;;;;;;;;;;
2021/02/28 02:27:19;;;;;;;1.5;1.3;;;;;;;;;;;;;
2021/02/28 02:29:44;;;;;;;1.4;1.3;;;;;;;;;;;;;
2021/02/28 02:32:09;;;;;;;2.8;1.3;;;;;;;;;;;;;
2021/02/28 02:34:36;;;;;;;1.2;1.1;;;;;;;;;;;;;
2021/02/28 02:37:01;;;;;;;4.6;1.5;;;;;;;;;;;;;
2021/02/28 02:39:27;;;;;;;2.3;1.7;;;;;;;;;;;;;
2021/02/28 02:41:53;;;;;;;1.4;1.3;;;;;;;;;;;;;
2021/02/28 02:44:18;;;;;;;1.9;1.6;;;;;;;;;;;;;
2021/02/28 02:46:43;;;;;;;1.1;1;;;;;;;;;;;;;
2021/02/28 02:49:09;;;;;;;1.9;1.6;;;;;;;;;;;;;
2021/02/28 02:51:34;;;;;;;2;1.2;;;;;;;;;;;;;
2021/02/28 02:54:00;;;;;;;2.2;1.5;;;;;;;;;;;;;
2021/02/28 02:56:25;;;;;;;2;1.4;;;;;;;;;;;;;
2021/02/28 02:58:51;;;;;;;4;2.7;;;;;;;;;;;;;
2021/02/28 03:01:17;;;;;;;3.7;2.1;;;;;;;;;;;;;
2021/02/28 03:03:43;;;;;;;5.8;1.6;;;;;;;;;;;;;
2021/02/28 03:06:08;;;;;;;3.2;2;;;;;;;;;;;;;
2021/02/28 03:08:34;;;;;;;3;1.6;;;;;;;;;;;;;
2021/02/28 03:10:59;;;;;;;1.8;1.4;;;;;;;;;;;;;
2021/02/28 03:13:25;;;;;;;3.8;1.7;;;;;;;;;;;;;
2021/02/28 03:15:51;;;;;;;8;1.7;;;;;;;;;;;;;
2021/02/28 03:18:16;;;;;;;3.3;2;;;;;;;;;;;;;
2021/02/28 03:20:42;;;;;;;3;1.7;;;;;;;;;;;;;
2021/02/28 03:23:08;;;;;;;2.5;1.5;;;;;;;;;;;;;
2021/02/28 03:25:33;;;;;;;2;1.6;;;;;;;;;;;;;
2021/02/28 03:27:59;;;;;;;2.6;1.6;;;;;;;;;;;;;
2021/02/28 03:30:24;;;;;;;3.6;2.2;;;;;;;;;;;;;
2021/02/28 03:32:51;;;;;;;3.5;1.8;;;;;;;;;;;;;
2021/02/28 03:35:16;;;;;;;0.9;0.9;;;;;;;;;;;;;
2021/02/28 03:37:41;;;;;;;4.2;1.8;;;;;;;;;;;;;
2021/02/28 03:40:06;;;;;;;2;1.1;;;;;;;;;;;;;
2021/02/28 03:42:32;;;;;;;0.8;0.8;;;;;;;;;;;;;
2021/02/28 03:44:57;;;;;;;1.5;1.3;;;;;;;;;;;;;
2021/02/28 03:47:23;;;;;;;1.9;1.1;;;;;;;;;;;;;
2021/02/28 03:49:48;;;;;;;3.4;1.7;;;;;;;;;;;;;
2021/02/28 03:52:15;;;;;;;1.7;1.3;;;;;;;;;;;;;
2021/02/28 03:54:40;;;;;;;3.3;1.6;;;;;;;;;;;;;
2021/02/28 03:57:06;;;;;;;2.1;1.5;;;;;;;;;;;;;
2021/02/28 03:59:31;;;;;;;1.5;1.2;;;;;;;;;;;;;
2021/02/28 04:02:30;;;;;;;1.9;1.4;;;;;;;-0.33;87.69922;951.7416;;;;
2021/02/28 04:04:55;;;;;;;2.3;1.7;;;;;;;-0.27;88.28906;951.7228;;;;
2021/02/28 04:07:23;;;;;;;4.5;1.4;;;;;;;-0.17;88.24512;951.6969;;;;
2021/02/28 04:09:48;;;;;;;3.2;1.7;;;;;;;-0.1;88.00195;951.6336;;;;
2021/02/28 04:12:18;;;;;;;1.8;1.5;;;;;;;-0.03;87.89453;951.7075;;;;
2021/02/28 04:14:43;;;;;;;2.4;1.8;;;;;;;-0.01;88.11035;951.7126;;;;
2021/02/28 04:17:08;;;;;;;2.6;1.5;;;;;;;-0.02;88.60059;951.6653;;;;
2021/02/28 04:19:38;;;;;;;1.3;0.9;;;;;;;0.01;88.96094;951.6492;;;;
2021/02/28 04:22:08;;;;;;;1.6;1.4;;;;;;;0.09;88.72168;951.6052;;;;
2021/02/28 04:24:33;;;;;;;0.8;0.7;;;;;;;0.1;87.85645;951.6465;;;;
2021/02/28 04:27:02;;;;;;;2.2;1.1;;;;;;;-0.1;86.95508;951.6233;;;;
2021/02/28 04:29:27;;;;;;;1.1;1;;;;;;;-0.1;86.16504;951.6326;;;;
2021/02/28 04:31:56;;;;;;;1.4;1.3;;;;;;;-0.12;86.61914;951.5892;;;;
2021/02/28 04:34:21;;;;;;;1.7;1.2;;;;;;;-0.07;87.45313;951.611;;;;
2021/02/28 04:36:51;;;;;;;0.9;0.9;;;;;;;0.02;87.7168;951.6017;;;;
2021/02/28 04:39:20;;;;;;;1.2;1.1;;;;;;;0.13;87.54102;951.5948;;;;
2021/02/28 04:41:45;;;;;;;3.5;1;;;;;;;0.18;87.31543;951.5823;;;;
2021/02/28 04:44:13;;;;;;;2;1.2;;;;;;;0.14;87.29492;951.5282;;;;
2021/02/28 04:46:38;;;;;;;1.2;1.1;;;;;;;-0.01;87.76465;951.5586;;;;
2021/02/28 04:49:08;;;;;;;2.2;1.3;;;;;;;-0.05;87.95605;951.5658;;;;
2021/02/28 04:51:39;;;;;;;2;1;;;;;;;-0.28;89.06641;951.4163;;;;
2021/02/28 04:54:08;;;;;;;1.7;1.3;;;;;;;-0.3;89.54102;951.5385;;;;
2021/02/28 04:56:34;;;;;;;1.5;1.1;;;;;;;-0.34;89.75488;951.4933;;;;
2021/02/28 04:59:02;;;;;;;1.1;1;;;;;;;-0.37;89.86035;951.3644;;;;
2021/02/28 05:01:27;;;;;;;2.2;1.6;;;;;;;-0.3;89.61035;951.4517;;;;
2021/02/28 05:03:55;;;;;;;1.4;1.3;;;;;;;-0.32;89.50391;951.4416;;;;
2021/02/28 05:06:21;;;;;;;1.1;1;;;;;;;-0.32;89.70508;951.4037;;;;
2021/02/28 05:08:48;;;;;;;2.5;0.9;;;;;;;-0.17;89.33691;951.3797;;;;
2021/02/28 05:11:13;;;;;;;2;1.5;;;;;;;-0.2;89.15234;951.356;;;;
2021/02/28 05:13:43;;;;;;;1.5;1.4;;;;;;;-0.15;89.0957;951.3642;;;;
2021/02/28 05:16:09;;;;;;;1.4;1.2;;;;;;;-0.18;88.48633;951.3361;;;;
2021/02/28 05:18:38;;;;;;;2.2;1.4;;;;;;;-0.37;89.16113;951.2887;;;;
2021/02/28 05:21:04;;;;;;;3.1;2;;;;;;;-0.42;89.75;951.291;;;;
2021/02/28 05:23:33;;;;;;;2.6;1.6;;;;;;;-0.37;89.41699;951.2802;;;;
2021/02/28 05:26:04;;;;;;;10;1.6;;;;;;;-0.5;89.97754;951.3024;;;;
2021/02/28 05:28:35;;;;;;;3.1;1.4;;;;;;;-0.56;90.5332;951.2734;;;;
2021/02/28 05:31:05;;;;;;;1.4;1;;;;;;;-0.49;90.36914;951.2791;;;;
2021/02/28 05:33:34;;;;;;;2.9;1.9;;;;;;;-0.49;90.5918;951.1404;;;;
2021/02/28 05:35:59;;;;;;;1.3;1.2;;;;;;;-0.38;89.89355;951.1365;;;;
2021/02/28 05:38:25;;;;;;;2;1.6;;;;;;;-0.26;89.46191;951.2709;;;;
2021/02/28 05:40:50;;;;;;;2.7;1.7;;;;;;;-0.28;88.75488;951.2175;;;;
2021/02/28 05:43:15;;;;;;;2.6;1.4;;;;;;;-0.39;89.11035;951.2303;;;;
2021/02/28 05:45:44;;;;;;;3.1;1.5;;;;;;;-0.41;89.3623;951.155;;;;
2021/02/28 05:48:13;;;;;;;2;1.6;;;;;;;-0.39;89.06641;951.1646;;;;
2021/02/28 05:50:38;;;;;;;2.8;1.4;;;;;;;-0.48;89.48047;951.2297;;;;
2021/02/28 05:53:07;;;;;;;2;1.4;;;;;;;-0.53;89.625;951.222;;;;
2021/02/28 05:55:42;;;;;;;4;2.3;;;;;;;-0.6;89.97852;951.2798;;;;
2021/02/28 05:58:12;;;;;;;2.8;2.1;;;;;;;-0.57;89.72852;951.2607;;;;
2021/02/28 06:00:41;;;;;;;2.5;1.4;;;;;;;-0.55;89.55664;951.2469;;;;
2021/02/28 06:03:11;;;;;;;4.7;1.4;;;;;;;-0.47;89.1377;951.2158;;;;
2021/02/28 06:05:40;;;;;;;1;0.9;;;;;;;-0.47;88.94824;951.2336;;;;
2021/02/28 06:08:06;;;;;;;1.2;1;;;;;;;-0.42;88.4375;951.1877;;;;
2021/02/28 06:10:38;;;;;;;1.2;0.9;;;;;;;-0.52;88.58301;951.2841;;;;
2021/02/28 06:13:08;;;;;;;3;1.2;;;;;;;-0.63;89.03906;951.2639;;;;
2021/02/28 06:15:38;;;;;;;1.2;1.1;;;;;;;-0.63;89.09473;951.2436;;;;
2021/02/28 06:18:09;;;;;;;1.6;1.3;;;;;;;-0.75;89.5791;951.2311;;;;
2021/02/28 06:20:42;;;;;;;4.5;1.8;;;;;;;-0.69;89.40137;951.2486;;;;
2021/02/28 06:23:06;;;;;;;2.1;1.2;;;;;;;-0.71;89.84668;951.3031;;;;
2021/02/28 06:25:34;;;;;;;1.3;1.2;;;;;;;-0.64;89.49316;951.2927;;;;
2021/02/28 06:28:05;;;;;;;2.2;1.4;;;;;;;-0.59;88.9668;951.2598;;;;
2021/02/28 06:30:33;;;;;;;2.1;1.1;;;;;;;-0.7;89.0127;951.3289;;;;
2021/02/28 06:33:04;;;;;;;1.8;1.5;;;;;;;-0.59;89.99219;951.2237;;;;
2021/02/28 06:35:40;;;;;;;1.6;1.5;;;;;;;0.18;87.79297;951.3511;;;;
2021/02/28 06:38:05;;;;;;;2.2;1.8;;;;;;;1.11;83.96582;951.2731;;;;
2021/02/28 06:40:38;;;;;;;3;1.9;;;;;;;1.72;79.51367;951.3347;;;;
2021/02/28 06:43:02;;;;;;;2.1;1.5;;;;;;;1.97;77.49023;951.3272;;;;
2021/02/28 06:45:29;;;;;;;1.3;1.2;;;;;;;2.11;77.95117;951.2869;;;;
2021/02/28 06:47:54;;;;;;;1.5;1.1;;;;;;;2.23;76.61816;951.3322;;;;
2021/02/28 06:50:21;;;;;;;4.7;1.9;;;;;;;1.96;77.28516;951.3384;;;;
2021/02/28 06:52:46;;;;;;;2.4;1.3;;;;;;;2.04;78.00586;951.3146;;;;
2021/02/28 06:55:11;;;;;;;1.5;1.1;;;;;;;2.65;76.96387;951.3027;;;;
2021/02/28 06:57:38;;;;;;;3.5;1.2;;;;;;;2.93;75.10645;951.2964;;;;
2021/02/28 07:00:03;;;;;;;1.5;1.2;;;;;;;3.04;73.98242;951.2601;;;;
2021/02/28 07:02:32;;;;;;;6;3.3;;;;;;;3.32;73.4375;951.2721;;;;
2021/02/28 07:04:57;;;;;;;4.2;2.3;;;;;;;3.5;72.47852;951.2224;;;;
2021/02/28 07:07:23;;;;;;;3.6;1.5;;;;;;;3.56;72.26367;951.2092;;;;
2021/02/28 07:09:48;;;;;;;1.6;1.3;;;;;;;3.95;71.10547;951.1483;;;;
2021/02/28 07:12:13;;;;;;;6.2;1.3;;;;;;;4.13;70.62988;951.2034;;;;
2021/02/28 07:14:46;;;;;;;1.8;1.1;;;;;;;4.82;68.89551;951.2252;;;;
2021/02/28 07:17:20;;;;;;;2;1.4;;;;;;;5.45;66.08594;951.1726;;;;
2021/02/28 07:19:45;;;;;;;1.4;1;;;;;;;5.45;65.10449;951.1569;;;;
2021/02/28 07:22:15;;;;;;;2.7;1.2;;;;;;;5.43;64.88867;951.2065;;;;
2021/02/28 07:24:42;;;;;;;0.8;0.8;;;;;;;5.32;65.63672;951.1247;;;;
2021/02/28 07:27:12;;;;;;;1.1;0.6;;;;;;;4.66;67.85547;951.1479;;;;
2021/02/28 07:29:37;;;;;;;1.3;0.8;;;;;;;4.95;68.24121;951.19;;;;
2021/02/28 07:32:02;;;;;;;0.5;0.5;;;;;;;4.77;68.7627;951.1534;;;;
2021/02/28 07:34:27;;;;;;;1.3;0.9;;;;;;;5.1;67.08203;951.1753;;;;
2021/02/28 07:36:52;;;;;;;1.4;0.9;;;;;;;5.38;66.59375;951.123;;;;
2021/02/28 07:39:21;;;;;;;1.9;1.1;;;;;;;5.57;66.47852;951.1163;;;;
2021/02/28 07:41:46;;;;;;;0.8;0.6;;;;;;;5.5;65.86719;951.0672;;;;
2021/02/28 07:44:14;;;;;;;0.8;0.5;;;;;;;5.89;64.5166;951.0666;;;;
2021/02/28 07:46:39;;;;;;;3.6;1;;;;;;;6.26;63.25977;951.0539;;;;
2021/02/28 07:49:04;;;;;;;0.6;0.6;;;;;;;6.63;62.24121;950.9723;;;;
2021/02/28 07:51:33;;;;;;;0.6;0.5;;;;;;;6.78;60.30566;951.0147;;;;
2021/02/28 07:54:03;;;;;;;0.4;0.4;;;;;;;6.92;60.34668;950.938;;;;
2021/02/28 07:56:26;;;;;;;0.6;0.5;;;;;;;6.98;60.18652;950.8717;;;;
2021/02/28 07:58:52;;;;;;;3.6;0.9;;;;;;;7.11;59.2168;950.8876;;;;
2021/02/28 08:01:17;;;;;;;1.3;1;;;;;;;6.78;61.10938;950.9055;;;;
2021/02/28 08:03:43;;;;;;;1.6;0.7;;;;;;;6.69;61.85449;950.877;;;;
2021/02/28 08:06:12;;;;;;;5.1;0.9;;;;;;;6.47;62.03516;950.8808;;;;
2021/02/28 08:08:37;;;;;;;0.5;0.4;;;;;;;6.34;63.48828;950.9099;;;;
2021/02/28 08:11:02;;;;;;;1.5;0.6;;;;;;;7.53;61.3623;950.856;;;;
2021/02/28 08:13:33;;;;;;;0.4;0.4;;;;;;;8.08;57.33203;950.8077;;;;
2021/02/28 08:15:58;;;;;;;0.9;0.5;;;;;;;8.51;56.34375;950.6611;;;;
2021/02/28 08:18:24;;;;;;;2.3;0.9;;;;;;;9.28;54.03125;950.8394;;;;
2021/02/28 08:20:51;;;;;;;1.2;0.7;;;;;;;10.69;50.40332;950.683;;;;
2021/02/28 08:23:16;;;;;;;0.5;0.5;;;;;;;11.07;48.03516;950.7255;;;;
2021/02/28 08:25:47;;;;;;;0.7;0.4;;;;;;;11.07;48.43652;950.7034;;;;
2021/02/28 08:28:17;;;;;;;0.6;0.5;;;;;;;11.02;47.05859;950.6945;;;;
2021/02/28 08:30:42;;;;;;;0.5;0.4;;;;;;;11.28;47.33887;950.7109;;;;
2021/02/28 08:33:12;;;;;;;1.2;0.8;;;;;;;11.65;46.58984;950.6156;;;;
2021/02/28 08:35:39;;;;;;;0.8;0.6;;;;;;;12.02;45.95313;950.6241;;;;
2021/02/28 08:38:03;;;;;;;0.6;0.6;;;;;;;12.65;43.97754;950.6302;;;;
2021/02/28 08:40:32;;;;;;;0.6;0.5;;;;;;;12.63;43.21777;950.6209;;;;
2021/02/28 08:42:57;;;;;;;1;0.6;;;;;;;13.08;42.81543;950.6028;;;;
2021/02/28 08:45:23;;;;;;;1.2;0.9;;;;;;;13.7;40.74805;950.637;;;;
2021/02/28 08:47:48;;;;;;;1.5;0.6;;;;;;;15.39;36.76172;950.5751;;;;
2021/02/28 08:50:13;;;;;;;0.9;0.5;;;;;;;15.78;35.88184;950.5558;;;;
2021/02/28 08:52:41;;;;;;;9;1.3;;;;;;;15.71;35.86426;950.5109;;;;
2021/02/28 08:55:07;;;;;;;0.3;0.3;;;;;;;17.64;33.99121;950.4993;;;;
2021/02/28 08:57:32;;;;;;;0.8;0.5;;;;;;;19.24;31.49512;950.4914;;;;
2021/02/28 08:59:59;;;;;;;0.8;0.7;;;;;;;19.23;32.15723;950.3873;;;;
2021/02/28 09:02:24;;;;;;;1.3;0.9;;;;;;;18.35;33.18652;950.5258;;;;
2021/02/28 09:04:53;;;;;;;1;0.9;;;;;;;17.72;33.69531;950.4087;;;;
2021/02/28 09:07:18;;;;;;;0.6;0.6;;;;;;;16.64;35.37305;950.4519;;;;
2021/02/28 09:09:43;;;;;;;0.5;0.5;;;;;;;15.9;36.74707;950.5419;;;;
2021/02/28 09:12:09;;;;;;;0.9;0.8;;;;;;;14.93;39.16797;950.5845;;;;
2021/02/28 09:14:37;;;;;;;0.7;0.7;;;;;;;14.84;38.62988;950.4935;;;;
2021/02/28 09:17:04;;;;;;;1.6;0.7;;;;;;;13.7;41.3125;950.5938;;;;
2021/02/28 09:19:29;;;;;;;0.7;0.4;;;;;;;14.28;39.49023;950.6;;;;
2021/02/28 09:21:56;;;;;;;0.9;0.8;;;;;;;13.9;40.79004;950.5542;;;;
2021/02/28 09:24:21;;;;;;;1.7;0.9;;;;;;;14.65;39.08496;950.5084;;;;
2021/02/28 09:26:49;;;;;;;0.6;0.6;;;;;;;15.04;39.46582;950.5355;;;;
2021/02/28 09:29:14;;;;;;;1.3;0.8;;;;;;;16.01;37.0791;950.4833;;;;
2021/02/28 09:31:42;;;;;;;1.2;0.7;;;;;;;15.72;37.81836;950.4854;;;;
2021/02/28 09:34:07;;;;;;;1.6;1.1;;;;;;;15.85;38.16406;950.5598;;;;
2021/02/28 09:36:32;;;;;;;0.6;0.6;;;;;;;14.83;39.2168;950.5856;;;;
2021/02/28 09:38:57;;;;;;;0.7;0.5;;;;;;;14.27;41.35449;950.6303;;;;
2021/02/28 09:41:24;;;;;;;1.1;0.9;;;;;;;13.2;44.09082;950.6895;;;;
2021/02/28 09:43:54;;;;;;;2.7;0.9;;;;;;;12.84;44.78809;950.6688;;;;
2021/02/28 09:46:18;;;;;;;1.1;0.7;;;;;;;12.7;45.30176;950.6489;;;;
2021/02/28 09:48:43;;;;;;;1.1;0.9;;;;;;;12.68;44.74902;950.5931;;;;
2021/02/28 09:51:09;;;;;;;1.5;0.6;;;;;;;12.85;45.65137;950.5644;;;;
2021/02/28 09:53:35;;;;;;;1.4;1;;;;;;;12.32;47.11914;950.6096;;;;
2021/02/28 09:56:03;;;;;;;1.2;0.7;;;;;;;11.97;48.65234;950.5603;;;;
2021/02/28 09:58:28;;;;;;;1.1;1;;;;;;;11.21;50.07617;950.5301;;;;
2021/02/28 10:00:54;;;;;;;0.9;0.7;;;;;;;10.51;51.87793;950.5901;;;;
2021/02/28 10:03:22;;;;;;;1.7;1;;;;;;;10.95;51.45117;950.6152;;;;
2021/02/28 10:05:47;;;;;;;0.7;0.7;;;;;;;10.68;52.08105;950.6725;;;;
2021/02/28 10:08:13;;;;;;;0.9;0.8;;;;;;;10.41;53.20117;950.6078;;;;
2021/02/28 10:10:40;;;;;;;0.9;0.8;;;;;;;9.8;55.08789;950.6177;;;;
2021/02/28 10:13:07;;;;;;;1.5;0.8;;;;;;;10.26;52.99023;950.7981;;;;
2021/02/28 10:15:38;;;;;;;1.5;0.9;;;;;;;10.15;54.19727;950.7206;;;;
2021/02/28 10:18:05;;;;;;;1.1;1;;;;;;;9.76;55.40137;950.8423;;;;
2021/02/28 10:20:30;;;;;;;1;0.7;;;;;;;10.06;53.52344;950.9321;;;;
2021/02/28 10:22:57;;;;;;;2.3;1.2;;;;;;;9.79;53.80957;950.9578;;;;
2021/02/28 10:25:22;;;;;;;1.4;0.9;;;;;;;9.6;53.61523;950.9745;;;;
2021/02/28 10:27:53;;;;;;;1.1;0.6;;;;;;;9.55;54.7373;950.9299;;;;
2021/02/28 10:30:24;;;;;;;1.3;1;;;;;;;9.1;55.47656;951.0377;;;;
2021/02/28 10:32:54;;;;;;;2.5;1.1;;;;;;;8.88;55.95996;950.9285;;;;
2021/02/28 10:35:25;;;;;;;0.9;0.6;;;;;;;8.63;57.67773;950.997;;;;
2021/02/28 10:37:55;;;;;;;0.6;0.6;;;;;;;8.62;58.08496;950.9878;;;;
2021/02/28 10:40:25;;;;;;;2.2;0.7;;;;;;;8.72;58.41797;950.9725;;;;
2021/02/28 10:42:50;;;;;;;1.8;1.2;;;;;;;8.7;58.67578;950.9455;;;;
2021/02/28 10:45:18;;;;;;;1.2;0.9;;;;;;;8.71;58.68848;950.9348;;;;
2021/02/28 10:47:43;;;;;;;0.7;0.6;;;;;;;8.09;59.19434;950.9531;;;;
2021/02/28 10:50:13;;;;;;;1.5;1.1;;;;;;;8.06;59.26953;951.0415;;;;
2021/02/28 10:52:38;;;;;;;1.8;1.5;;;;;;;8.15;61.28027;951.0045;;;;
2021/02/28 10:55:03;;;;;;;1.3;1;;;;;;;8.37;58.49414;950.9521;;;;
2021/02/28 10:57:28;;;;;;;1.4;0.8;;;;;;;7.75;62.16602;951.0577;;;;
2021/02/28 10:59:57;;;;;;;1.9;1.2;;;;;;;8.07;59.29395;951.0413;;;;
2021/02/28 11:02:22;;;;;;;2.2;0.9;;;;;;;8.49;58.55566;951.0112;;;;
2021/02/28 11:04:52;;;;;;;0.9;0.6;;;;;;;8.27;58.66211;950.9158;;;;
2021/02/28 11:07:17;;;;;;;1.4;1.1;;;;;;;8.32;58.26074;950.9886;;;;
2021/02/28 11:09:46;;;;;;;2.5;1;;;;;;;7.65;61.91309;951.0022;;;;
2021/02/28 11:12:11;;;;;;;1.3;1;;;;;;;8.32;58.89746;950.9922;;;;
2021/02/28 11:14:40;;;;;;;1.4;1.1;;;;;;;7.8;60.43652;950.9869;;;;
2021/02/28 11:17:08;;;;;;;1.2;1.1;;;;;;;8.03;60.24219;951.0087;;;;
2021/02/28 11:19:33;;;;;;;1.1;0.9;;;;;;;9.14;56.5957;950.9747;;;;
2021/02/28 11:21:59;;;;;;;2.1;1.3;;;;;;;9.42;55.75684;950.9391;;;;
2021/02/28 11:24:24;;;;;;;2.4;1.1;;;;;;;9.75;53.98633;950.9113;;;;
2021/02/28 11:26:51;;;;;;;1.7;1.3;;;;;;;10.43;52.58887;950.8617;;;;
2021/02/28 11:29:17;;;;;;;2.1;1.2;;;;;;;10.97;51.45313;950.8547;;;;
2021/02/28 11:31:43;;;;;;;1.4;1.1;;;;;;;11.45;49.75977;950.7324;;;;
2021/02/28 11:34:08;;;;;;;1.4;1.3;;;;;;;11.99;48.24121;950.8161;;;;
2021/02/28 11:36:35;;;;;;;3.7;1.2;;;;;;;12.6;46.33594;950.7503;;;;
2021/02/28 11:39:00;;;;;;;1.4;1.1;;;;;;;12.77;45.57324;950.7654;;;;
2021/02/28 11:41:26;;;;;;;1.9;1;;;;;;;12.93;44.82031;950.7914;;;;
2021/02/28 11:43:51;;;;;;;1.5;0.8;;;;;;;13.08;44.90527;950.6483;;;;
2021/02/28 11:46:17;;;;;;;2.8;1;;;;;;;13.2;44.53809;950.6838;;;;
2021/02/28 11:48:43;;;;;;;1.6;0.7;;;;;;;13.2;44.62988;950.6677;;;;
2021/02/28 11:51:09;;;;;;;1.6;0.9;;;;;;;13.74;43.47852;950.6969;;;;
2021/02/28 11:53:35;;;;;;;1.1;0.7;;;;;;;13.68;43.89844;950.6872;;;;
2021/02/28 11:56:01;;;;;;;2;1.3;;;;;;;13.35;44.87598;950.6951;;;;
2021/02/28 11:58:27;;;;;;;5.1;2.2;;;;;;;14.02;42.64258;950.5764;;;;
2021/02/28 12:00:54;;;;;;;1.1;0.9;;;;;;;13.42;45.07813;950.5444;;;;
2021/02/28 12:03:20;;;;;;;2;1.3;;;;;;;14.25;41.75586;950.4963;;;;
2021/02/28 12:05:47;;;;;;;0.7;0.6;;;;;;;15.52;39.62598;950.4202;;;;
2021/02/28 12:08:12;;;;;;;3.2;0.8;;;;;;;16.58;37.29004;950.3812;;;;
2021/02/28 12:10:40;;;;;;;2.4;1.4;;;;;;;18.22;34.61816;950.3687;;;;
2021/02/28 12:13:05;;;;;;;1;0.8;;;;;;;18.01;34.48535;950.3722;;;;
2021/02/28 12:15:37;;;;;;;1.7;1;;;;;;;17.8;34.81641;950.3435;;;;
2021/02/28 12:18:02;;;;;;;1.7;0.8;;;;;;;16.42;36.95215;950.308;;;;
2021/02/28 12:20:27;;;;;;;1.1;0.9;;;;;;;15.86;38.68555;950.3792;;;;
2021/02/28 12:22:56;;;;;;;2.5;1.2;;;;;;;15.93;39.0957;950.2859;;;;
2021/02/28 12:25:21;;;;;;;1.3;1.1;;;;;;;16.38;38.09375;950.3122;;;;
2021/02/28 12:27:47;;;;;;;1.3;1.2;;;;;;;16.26;38.89453;950.2568;;;;
2021/02/28 12:30:13;;;;;;;1.5;0.5;;;;;;;16;39.65723;950.2953;;;;
2021/02/28 12:32:41;;;;;;;1.1;0.7;;;;;;;17.17;36.98047;950.3103;;;;
2021/02/28 12:35:06;;;;;;;1.2;1;;;;;;;18.01;34.98438;950.1569;;;;
2021/02/28 12:37:33;;;;;;;1.3;0.8;;;;;;;19.37;32.14453;950.1063;;;;
2021/02/28 12:39:58;;;;;;;1.1;0.8;;;;;;;19.53;31.77148;950.1848;;;;
2021/02/28 12:42:27;;;;;;;1.7;1.3;;;;;;;19.41;32.46191;950.1666;;;;
2021/02/28 12:44:52;;;;;;;1.2;0.6;;;;;;;18.44;33.62305;950.1453;;;;
2021/02/28 12:47:20;;;;;;;2.3;0.8;;;;;;;19.13;32.96582;950.087;;;;
2021/02/28 12:49:45;;;;;;;0.9;0.7;;;;;;;19.17;32.51367;950.1038;;;;
2021/02/28 12:52:11;;;;;;;1.1;0.9;;;;;;;18.58;33.5752;950.0764;;;;
2021/02/28 12:54:37;;;;;;;1.5;0.9;;;;;;;19.11;32.94043;950.1395;;;;
2021/02/28 12:57:03;;;;;;;1.1;0.8;;;;;;;20.31;30.58984;950.043;;;;
2021/02/28 12:59:28;;;;;;;1.1;0.8;;;;;;;20.44;30.3418;950.0762;;;;
2021/02/28 13:01:54;;;;;;;1.1;0.5;;;;;;;19.29;32.52344;950.0809;;;;
2021/02/28 13:04:19;;;;;;;1.1;1;;;;;;;19.01;34.10938;949.9895;;;;
2021/02/28 13:06:47;;;;;;;0.8;0.8;;;;;;;18.32;34.25293;949.9089;;;;
2021/02/28 13:09:12;;;;;;;1.2;0.8;;;;;;;19.14;32.52344;949.8705;;;;
2021/02/28 13:11:38;;;;;;;2.4;0.9;;;;;;;19.81;31.37207;949.8739;;;;
2021/02/28 13:14:03;;;;;;;1.2;0.9;;;;;;;19.55;32.11133;949.8537;;;;
2021/02/28 13:16:30;;;;;;;1.3;0.8;;;;;;;19.17;32.7002;949.7622;;;;
2021/02/28 13:18:55;;;;;;;1;0.8;;;;;;;19.26;32.5791;949.7595;;;;
2021/02/28 13:21:22;;;;;;;1;0.9;;;;;;;20.95;30.41211;949.728;;;;
2021/02/28 13:23:47;;;;;;;1.2;0.8;;;;;;;20.96;30.0498;949.7059;;;;
2021/02/28 13:26:16;;;;;;;0.9;0.6;;;;;;;20.14;31.53516;949.6785;;;;
2021/02/28 13:28:48;;;;;;;0.9;0.6;;;;;;;18.75;33.08789;949.6714;;;;
2021/02/28 13:31:20;;;;;;;1.2;1;;;;;;;18.76;33.33301;949.6479;;;;
2021/02/28 13:33:50;;;;;;;1.6;1.1;;;;;;;18.79;33.46289;949.6454;;;;
2021/02/28 13:36:19;;;;;;;0.9;0.7;;;;;;;18.23;34.89648;949.622;;;;
2021/02/28 13:38:44;;;;;;;0.9;0.5;;;;;;;18.13;34.50586;949.6581;;;;
2021/02/28 13:41:10;;;;;;;1.5;0.9;;;;;;;19.5;32.00195;949.6316;;;;
2021/02/28 13:43:36;;;;;;;1.6;0.9;;;;;;;19.61;31.96387;949.5292;;;;
2021/02/28 13:46:06;;;;;;;0.9;0.8;;;;;;;19.2;32.35254;949.5924;;;;
2021/02/28 13:48:37;;;;;;;0.7;0.6;;;;;;;18.11;34.55078;949.4824;;;;
2021/02/28 13:51:03;;;;;;;1.3;0.9;;;;;;;16.94;37.52832;949.5963;;;;
2021/02/28 13:53:35;;;;;;;1.3;0.9;;;;;;;17.55;35.77051;949.5862;;;;
2021/02/28 13:56:04;;;;;;;1.2;0.9;;;;;;;18.55;34.2832;949.5424;;;;
2021/02/28 13:58:29;;;;;;;1.4;1;;;;;;;19.08;32.68262;949.4711;;;;
2021/02/28 14:00:58;;;;;;;0.8;0.8;;;;;;;19.8;31.67383;949.4821;;;;
2021/02/28 14:03:23;;;;;;;1.9;1;;;;;;;20.19;31.04883;949.4256;;;;
2021/02/28 14:05:50;;;;;;;0.8;0.8;;;;;;;18.49;33.08008;949.5281;;;;
2021/02/28 14:08:15;;;;;;;2.2;1.1;;;;;;;17.42;35.65625;949.4878;;;;
2021/02/28 14:10:46;;;;;;;0.7;0.6;;;;;;;18.52;33.66406;949.4207;;;;
2021/02/28 14:13:14;;;;;;;1.5;0.8;;;;;;;18.32;34.49707;949.3943;;;;
2021/02/28 14:15:43;;;;;;;1.2;0.9;;;;;;;19.07;32.90332;949.3879;;;;
2021/02/28 14:18:11;;;;;;;1.5;1;;;;;;;19.16;32.68848;949.4222;;;;
2021/02/28 14:20:37;;;;;;;1.2;0.9;;;;;;;19.18;32.53809;949.3858;;;;
2021/02/28 14:23:05;;;;;;;1;0.8;;;;;;;17.39;35.66504;949.428;;;;
2021/02/28 14:25:30;;;;;;;1;0.9;;;;;;;16.87;37.69727;949.481;;;;
2021/02/28 14:27:59;;;;;;;0.9;0.7;;;;;;;18.12;35.25977;949.4018;;;;
2021/02/28 14:30:24;;;;;;;5;1.6;;;;;;;17.95;35.1416;949.3315;;;;
2021/02/28 14:32:49;;;;;;;1.2;0.8;;;;;;;18.4;34.30664;949.3369;;;;
2021/02/28 14:35:18;;;;;;;1;0.9;;;;;;;17.06;36.83203;949.3522;;;;
2021/02/28 14:37:43;;;;;;;0.7;0.7;;;;;;;16.35;38.7627;949.2766;;;;
2021/02/28 14:40:14;;;;;;;2.8;1.2;;;;;;;16.45;38.34277;949.3617;;;;
2021/02/28 14:42:42;;;;;;;2.6;1.3;;;;;;;16.98;37.625;949.3315;;;;
2021/02/28 14:45:16;;;;;;;1.5;1.1;;;;;;;17.24;36.66211;949.3094;;;;
2021/02/28 14:47:42;;;;;;;1.3;0.9;;;;;;;16.04;39.10547;949.3003;;;;
2021/02/28 14:50:07;;;;;;;1.9;1;;;;;;;16.75;37.68652;949.2349;;;;
2021/02/28 14:52:37;;;;;;;1.3;0.8;;;;;;;16.48;38.13867;949.2816;;;;
2021/02/28 14:55:02;;;;;;;1.4;0.9;;;;;;;16.32;38.8291;949.2017;;;;
2021/02/28 14:57:33;;;;;;;2.8;1.4;;;;;;;16.2;38.76172;949.2595;;;;
2021/02/28 15:00:02;;;;;;;1.1;1;;;;;;;16.8;37.51758;949.2568;;;;
2021/02/28 15:02:28;;;;;;;1.7;1.1;;;;;;;17;37.02441;949.2238;;;;
2021/02/28 15:04:54;;;;;;;1.2;0.8;;;;;;;16.33;38.63379;949.2966;;;;
2021/02/28 15:07:20;;;;;;;1.3;1.1;;;;;;;15.71;39.36523;949.2469;;;;
2021/02/28 15:09:49;;;;;;;1.2;1;;;;;;;16.03;38.75781;949.1942;;;;
2021/02/28 15:12:14;;;;;;;1.9;1.4;;;;;;;16.72;37.34766;949.1866;;;;
2021/02/28 15:14:41;;;;;;;1.3;1.2;;;;;;;15.61;39.50586;949.2048;;;;
2021/02/28 15:17:12;;;;;;;1;0.9;;;;;;;15.82;39.2832;949.183;;;;
2021/02/28 15:19:38;;;;;;;1.9;1.2;;;;;;;15.42;40.03125;949.1578;;;;
2021/02/28 15:22:03;;;;;;;0.8;0.8;;;;;;;15.58;40.01074;949.1192;;;;
2021/02/28 15:24:31;;;;;;;0.8;0.8;;;;;;;15.61;39.42578;949.168;;;;
2021/02/28 15:26:56;;;;;;;2.1;1.6;;;;;;;15.2;40.55371;949.1252;;;;
2021/02/28 15:29:25;;;;;;;1.7;1;;;;;;;15.25;42.25488;949.142;;;;
2021/02/28 15:31:55;;;;;;;1.5;1;;;;;;;15;40.91602;949.1509;;;;
2021/02/28 15:34:20;;;;;;;4.3;1.3;;;;;;;13.96;43.38477;949.076;;;;
2021/02/28 15:36:49;;;;;;;1.9;1.3;;;;;;;14;43.89551;949.1495;;;;
2021/02/28 15:39:23;;;;;;;1.3;0.9;;;;;;;13.71;43.87793;949.1788;;;;
2021/02/28 15:41:48;;;;;;;1.8;0.9;;;;;;;12.68;46.5498;949.1635;;;;